Hovedside
METAR-TAF:

METAR-TAF

Lufthavner :

Notodden lufthavn

Notodden, Norge

breddegrad: 59-34N, lengdegrad: 009-13E, høyde over havet: 19 m

Gjeldene værobservasjon

Denne rapporten ble laget for 1 time og 55 minutter siden, klokken 13:50 UTC
Vind 9 kt fra Øst
Temperatur 25°C
Luftfuktighet 32%
Trykk 1017 hPa
Sikt 10 km eller mer
ingen skyer under 1500 m og ingen bygeskyer

METAR: ENNO 241350Z 10009KT CAVOK 25/07 Q1017

Tid: 17:45 (15:45 UTC)

Varsel

Denne rapporten ble laget for 7 timer og 45 minutter siden, klokken 08:00 UTC
Varsel gyldig fra 24. klokken 09 UTC til 24. klokken 14 UTC
Vind 5 kt fra skiftende retning
Sikt 10 km eller mer
ingen skyer under 1500 m og ingen bygeskyer
Blir
fra 24. klokken 10 UTC til 24. klokken 12 UTC
Vind 10 kt fra Øst

TAF: ENNO 240800Z 2409/2414 VRB05KT CAVOK BECMG 2410/2412 10010KT

Værobservasjoner og værvarsel for over 4000 flyplasser (METAR- og TAF-rapporter).

Tilgjengelige stasjoner er representert av de røde og gule prikkene på kartet.

Hold musepekeren over prikken for å se navnet på stasjonen.

Klikk så for å se værobservasjoner og -varsler.

For å forandre kartet kan du klikke på den grønne knappen med svart kryss for å zoome inn, på den grønne knappen med strek for å zoome ut, eller på de grønne pilene for å se tilstøtende kart.


METAR-TAF: